Time;durP1;ratioP1;P1;durP2;ratioP2;P2;SDS_P1;SDS_P2;PMS_P1;PMS_P2;Temp;Humidity;BMP_temperature;BMP_pressure;BME280_temperature;BME280_humidity;BME280_pressure;Samples;Min_cycle;Max_cycle;Signal;HPM_P1;HPM_P2
2022/04/09 00:00:32;;;;;;;1.13;1.00;;;1.50;99.90;;;;;;5033124;28;20170;-66
2022/04/09 00:02:58;;;;;;;0.50;0.50;;;1.50;99.90;;;;;;5032938;28;20183;-65
2022/04/09 00:05:25;;;;;;;0.45;0.45;;;1.50;99.90;;;;;;5031400;28;20647;-66
2022/04/09 00:07:51;;;;;;;0.57;0.57;;;1.50;99.90;;;;;;5033179;28;20703;-67
2022/04/09 00:10:16;;;;;;;2.43;0.60;;;1.50;99.90;;;;;;5033267;28;20198;-67
2022/04/09 00:12:46;;;;;;;1.00;0.97;;;1.50;99.90;;;;;;5033235;28;20201;-66
2022/04/09 00:15:13;;;;;;;0.82;0.60;;;1.60;99.90;;;;;;5032554;28;20428;-65
2022/04/09 00:17:43;;;;;;;0.93;0.93;;;1.60;99.90;;;;;;5033185;28;20212;-68
2022/04/09 00:20:11;;;;;;;0.50;0.50;;;1.60;99.90;;;;;;5031840;28;20170;-67
2022/04/09 00:22:38;;;;;;;0.40;0.40;;;1.70;99.90;;;;;;5033044;28;20552;-66
2022/04/09 00:25:08;;;;;;;0.55;0.55;;;1.70;99.90;;;;;;5032702;28;20216;-66
2022/04/09 00:27:35;;;;;;;0.40;0.40;;;1.70;99.90;;;;;;5033207;28;20166;-67
2022/04/09 00:30:02;;;;;;;0.30;0.30;;;1.70;99.90;;;;;;5032834;28;20163;-66
2022/04/09 00:32:28;;;;;;;0.50;0.50;;;1.80;99.90;;;;;;5033300;28;20163;-68
2022/04/09 00:34:53;;;;;;;1.07;0.70;;;1.80;99.90;;;;;;5032457;28;20197;-67
2022/04/09 00:37:19;;;;;;;0.40;0.40;;;1.80;99.90;;;;;;5033017;28;20257;-65
2022/04/09 00:39:45;;;;;;;0.70;0.70;;;1.80;99.90;;;;;;5032521;28;20265;-67
2022/04/09 00:42:15;;;;;;;0.67;0.60;;;1.90;99.90;;;;;;5032996;28;20181;-67
2022/04/09 00:44:40;;;;;;;0.80;0.80;;;1.90;99.90;;;;;;5033572;28;20197;-68
2022/04/09 00:47:07;;;;;;;0.77;0.77;;;1.90;99.90;;;;;;5034718;28;20178;-65
2022/04/09 00:49:35;;;;;;;0.40;0.40;;;1.90;99.90;;;;;;5033033;28;20166;-68
2022/04/09 00:52:03;;;;;;;0.77;0.77;;;1.90;99.90;;;;;;5032940;28;20667;-65
2022/04/09 00:54:32;;;;;;;0.88;0.82;;;1.90;99.90;;;;;;5032335;28;20166;-67
2022/04/09 00:57:06;;;;;;;0.80;0.80;;;1.90;99.90;;;;;;5032896;28;20169;-64
2022/04/09 00:59:36;;;;;;;0.50;0.50;;;1.90;99.90;;;;;;5032962;28;20191;-64
2022/04/09 01:02:02;;;;;;;1.15;1.15;;;1.90;99.90;;;;;;5032612;28;20224;-65
2022/04/09 01:04:28;;;;;;;0.70;0.70;;;1.90;99.90;;;;;;5030934;28;20210;-65
2022/04/09 01:06:55;;;;;;;0.60;0.50;;;1.90;99.90;;;;;;5032817;28;20625;-66
2022/04/09 01:09:21;;;;;;;0.93;0.93;;;2.00;99.90;;;;;;5032687;28;20547;-65
2022/04/09 01:11:47;;;;;;;0.57;0.57;;;2.00;99.90;;;;;;5034798;28;20245;-67
2022/04/09 01:14:13;;;;;;;0.50;0.50;;;2.00;99.90;;;;;;5036124;28;20213;-65
2022/04/09 01:16:39;;;;;;;2.05;1.27;;;2.00;99.90;;;;;;5035940;28;20232;-65
2022/04/09 01:19:05;;;;;;;0.50;0.50;;;2.00;99.90;;;;;;5036039;28;20629;-66
2022/04/09 01:21:30;;;;;;;0.50;0.50;;;2.10;99.90;;;;;;5036043;28;20933;-65
2022/04/09 01:23:56;;;;;;;0.60;0.60;;;2.10;99.90;;;;;;5035615;28;20220;-66
2022/04/09 01:26:22;;;;;;;0.53;0.53;;;2.10;99.90;;;;;;5035951;28;20196;-67
2022/04/09 01:28:49;;;;;;;0.80;0.77;;;2.10;99.90;;;;;;5035940;28;20600;-65
2022/04/09 01:31:16;;;;;;;0.85;0.75;;;2.10;99.90;;;;;;5034379;28;20178;-65
2022/04/09 01:33:42;;;;;;;0.77;0.50;;;2.10;99.90;;;;;;5035534;28;20182;-65
2022/04/09 01:36:08;;;;;;;1.05;1.05;;;2.10;99.90;;;;;;5035668;28;20190;-67
2022/04/09 01:38:34;;;;;;;0.80;0.80;;;2.10;99.90;;;;;;5035949;28;20170;-67
2022/04/09 01:41:01;;;;;;;3.90;0.95;;;2.10;99.90;;;;;;5035653;28;20170;-65
2022/04/09 01:43:26;;;;;;;0.70;0.70;;;2.20;99.90;;;;;;5035575;28;20235;-67
2022/04/09 01:45:52;;;;;;;0.60;0.60;;;2.20;99.90;;;;;;5035339;28;20197;-68
2022/04/09 01:48:18;;;;;;;1.00;1.00;;;2.20;99.90;;;;;;5035743;28;20197;-64
2022/04/09 01:50:44;;;;;;;1.23;1.05;;;2.20;99.90;;;;;;5035718;28;20167;-65
2022/04/09 01:53:09;;;;;;;1.13;1.13;;;2.20;99.90;;;;;;5035367;28;20196;-66
2022/04/09 01:55:35;;;;;;;0.50;0.50;;;2.30;99.90;;;;;;5035646;28;20540;-65
2022/04/09 01:58:01;;;;;;;1.90;1.80;;;2.30;99.90;;;;;;5035755;28;20525;-65
2022/04/09 02:00:27;;;;;;;1.35;1.27;;;2.20;99.90;;;;;;5033903;28;20174;-67
2022/04/09 02:02:53;;;;;;;1.20;1.20;;;2.30;99.90;;;;;;5035294;28;20166;-65
2022/04/09 02:05:19;;;;;;;1.10;0.80;;;2.30;99.90;;;;;;5035025;28;20539;-64
2022/04/09 02:07:47;;;;;;;0.40;0.40;;;2.40;99.90;;;;;;5035609;28;20304;-65
2022/04/09 02:10:14;;;;;;;0.93;0.93;;;2.40;99.90;;;;;;5035315;28;20162;-66
2022/04/09 02:12:40;;;;;;;0.70;0.70;;;2.40;99.90;;;;;;5035423;28;20169;-66
2022/04/09 02:15:08;;;;;;;1.10;1.10;;;2.40;99.90;;;;;;5034449;28;20529;-64
2022/04/09 02:17:35;;;;;;;1.13;1.10;;;2.40;99.90;;;;;;5035639;28;20169;-66
2022/04/09 02:20:04;;;;;;;0.50;0.50;;;2.40;99.90;;;;;;5035151;28;20206;-64
2022/04/09 02:22:45;;;;;;;0.77;0.77;;;2.40;99.90;;;;;;5035870;28;20178;-67
2022/04/09 02:25:16;;;;;;;1.15;1.15;;;2.40;99.90;;;;;;5034960;28;20202;-63
2022/04/09 02:27:42;;;;;;;1.48;1.48;;;2.50;99.90;;;;;;5035193;28;20573;-65
2022/04/09 02:30:09;;;;;;;1.70;1.00;;;2.50;99.90;;;;;;5035067;28;20176;-67
2022/04/09 02:32:46;;;;;;;0.75;0.75;;;2.50;99.90;;;;;;5034768;28;20170;-67
2022/04/09 02:35:12;;;;;;;1.48;1.38;;;2.50;99.90;;;;;;5034440;28;20273;-66
2022/04/09 02:37:38;;;;;;;1.60;1.50;;;2.50;99.90;;;;;;5034920;28;20585;-65
2022/04/09 02:40:05;;;;;;;1.92;1.83;;;2.50;99.90;;;;;;5034755;28;20826;-67
2022/04/09 02:42:30;;;;;;;1.48;1.45;;;2.50;99.90;;;;;;5034797;28;20174;-66
2022/04/09 02:44:56;;;;;;;1.30;1.20;;;2.50;99.90;;;;;;5033894;28;20206;-65
2022/04/09 02:47:22;;;;;;;1.67;1.57;;;2.50;99.90;;;;;;5033958;28;20691;-66
2022/04/09 02:49:47;;;;;;;0.70;0.70;;;2.60;99.90;;;;;;5034277;28;20170;-65
2022/04/09 02:52:13;;;;;;;1.03;1.03;;;2.60;99.90;;;;;;5034104;28;20227;-67
2022/04/09 02:54:38;;;;;;;1.47;1.47;;;2.60;99.90;;;;;;5033811;28;20220;-64
2022/04/09 02:57:04;;;;;;;2.13;2.03;;;2.60;99.90;;;;;;5034244;28;20158;-66
2022/04/09 02:59:30;;;;;;;2.17;1.30;;;2.60;99.90;;;;;;5034274;28;20572;-64
2022/04/09 03:01:55;;;;;;;3.27;2.10;;;2.60;99.90;;;;;;5033714;28;20751;-64
2022/04/09 03:04:21;;;;;;;2.60;2.20;;;2.60;99.90;;;;;;5033687;28;20576;-63
2022/04/09 03:06:47;;;;;;;1.20;1.13;;;2.60;99.90;;;;;;5033887;28;20660;-64
2022/04/09 03:09:12;;;;;;;1.27;1.20;;;2.70;99.90;;;;;;5034111;28;20196;-63
2022/04/09 03:11:38;;;;;;;2.03;1.93;;;2.70;99.90;;;;;;5034146;28;20550;-63
2022/04/09 03:14:04;;;;;;;1.97;1.87;;;2.70;99.90;;;;;;5033551;28;20255;-64
2022/04/09 03:16:32;;;;;;;1.85;1.75;;;2.70;99.90;;;;;;5033421;28;20206;-67
2022/04/09 03:18:57;;;;;;;1.35;1.35;;;2.70;99.90;;;;;;5033802;28;20174;-66
2022/04/09 03:21:23;;;;;;;2.53;2.33;;;2.70;99.90;;;;;;5032508;28;20626;-66
2022/04/09 03:23:49;;;;;;;1.93;1.77;;;2.70;99.90;;;;;;5033211;28;20201;-66
2022/04/09 03:26:14;;;;;;;3.00;2.07;;;2.60;99.90;;;;;;5033670;28;20261;-65
2022/04/09 03:28:40;;;;;;;1.90;1.80;;;2.60;99.90;;;;;;5033853;28;20552;-66
2022/04/09 03:31:08;;;;;;;2.00;1.90;;;2.70;99.90;;;;;;5033290;28;20178;-64
2022/04/09 03:33:33;;;;;;;2.30;1.05;;;2.70;99.90;;;;;;5032849;28;20517;-64
2022/04/09 03:36:00;;;;;;;1.33;1.33;;;2.70;99.90;;;;;;5033189;28;20252;-65
2022/04/09 03:38:25;;;;;;;2.40;2.03;;;2.70;99.90;;;;;;5033539;28;20200;-65
2022/04/09 03:40:51;;;;;;;1.90;1.20;;;2.70;99.90;;;;;;5032279;28;20177;-66
2022/04/09 03:43:17;;;;;;;1.30;1.10;;;2.80;99.90;;;;;;5033086;28;20185;-65
2022/04/09 03:45:42;;;;;;;2.10;1.90;;;2.80;99.90;;;;;;5033250;28;20186;-66
2022/04/09 03:48:08;;;;;;;2.23;2.10;;;2.80;99.90;;;;;;5032969;28;20256;-65
2022/04/09 03:50:36;;;;;;;1.23;1.13;;;2.80;99.90;;;;;;5033404;28;20173;-66
2022/04/09 03:53:02;;;;;;;1.63;1.52;;;2.80;99.90;;;;;;5033220;28;20158;-64
2022/04/09 03:55:29;;;;;;;1.60;1.50;;;2.90;99.90;;;;;;5033086;28;20288;-64
2022/04/09 03:57:58;;;;;;;3.67;3.20;;;2.90;99.90;;;;;;5032807;28;20261;-64
2022/04/09 04:00:24;;;;;;;4.90;3.17;;;2.90;99.90;;;;;;5033091;28;20174;-66
2022/04/09 04:02:50;;;;;;;2.55;2.35;;;2.90;99.90;;;;;;5032788;28;20173;-65
2022/04/09 04:05:16;;;;;;;1.77;1.67;;;2.90;99.90;;;;;;5032756;28;20609;-66
2022/04/09 04:07:44;;;;;;;2.90;2.65;;;3.00;99.90;;;;;;5033046;28;20625;-65
2022/04/09 04:10:12;;;;;;;3.55;1.98;;;3.00;99.90;;;;;;5033110;28;20231;-66
2022/04/09 04:12:42;;;;;;;2.30;2.20;;;3.00;99.90;;;;;;5032108;28;20655;-66
2022/04/09 04:15:09;;;;;;;4.10;2.08;;;3.00;99.90;;;;;;5031985;28;20203;-67
2022/04/09 04:17:41;;;;;;;2.55;2.25;;;3.00;99.90;;;;;;5032892;28;20227;-66
2022/04/09 04:20:09;;;;;;;3.42;3.13;;;3.00;99.90;;;;;;5033188;28;20174;-65
2022/04/09 04:22:34;;;;;;;3.80;2.65;;;3.00;99.90;;;;;;5033208;28;20534;-66
2022/04/09 04:25:00;;;;;;;3.70;3.40;;;3.10;99.90;;;;;;5031099;28;20205;-65
2022/04/09 04:27:26;;;;;;;2.77;2.57;;;3.00;99.90;;;;;;5032512;28;20182;-66
2022/04/09 04:29:51;;;;;;;5.23;4.13;;;3.00;99.90;;;;;;5032825;28;20181;-65
2022/04/09 04:32:17;;;;;;;3.27;2.87;;;2.90;99.90;;;;;;5032786;28;20170;-67
2022/04/09 04:34:42;;;;;;;4.43;4.03;;;2.90;99.90;;;;;;5032415;28;20217;-67
2022/04/09 04:37:08;;;;;;;3.73;3.33;;;2.80;99.90;;;;;;5033170;28;20186;-65
2022/04/09 04:39:33;;;;;;;5.17;2.93;;;2.80;99.90;;;;;;5031772;28;20185;-66
2022/04/09 04:41:59;;;;;;;3.50;3.30;;;2.80;99.90;;;;;;5032509;28;20170;-66
2022/04/09 04:44:25;;;;;;;4.10;3.80;;;2.70;99.90;;;;;;5032321;28;20672;-65
2022/04/09 04:46:50;;;;;;;3.13;2.93;;;2.70;99.90;;;;;;5034766;28;20174;-66
2022/04/09 04:49:16;;;;;;;7.37;3.87;;;2.70;99.90;;;;;;5036831;28;20611;-64
2022/04/09 04:51:42;;;;;;;4.83;4.10;;;2.60;99.90;;;;;;5036630;28;20176;-66
2022/04/09 04:54:07;;;;;;;4.63;3.90;;;2.60;99.90;;;;;;5036271;28;20260;-65
2022/04/09 04:56:33;;;;;;;7.67;4.40;;;2.60;99.90;;;;;;5035686;28;20584;-64
2022/04/09 04:58:59;;;;;;;5.40;3.53;;;2.60;99.90;;;;;;5036690;28;20182;-68
2022/04/09 05:01:24;;;;;;;2.63;1.90;;;2.60;99.90;;;;;;5036391;28;20637;-65
2022/04/09 05:03:50;;;;;;;3.47;3.17;;;2.60;99.90;;;;;;5035908;28;20559;-65
2022/04/09 05:06:16;;;;;;;5.90;3.70;;;2.60;99.90;;;;;;5034279;28;20201;-64
2022/04/09 05:08:41;;;;;;;2.73;2.53;;;2.70;99.90;;;;;;5036286;28;20185;-65
2022/04/09 05:11:07;;;;;;;8.17;5.40;;;2.70;99.90;;;;;;5035836;28;20188;-66
2022/04/09 05:13:33;;;;;;;7.83;4.40;;;2.80;99.90;;;;;;5018982;28;20179;-67
2022/04/09 05:15:58;;;;;;;6.43;4.40;;;2.80;99.90;;;;;;5016348;28;20282;-66
2022/04/09 05:18:24;;;;;;;7.03;5.77;;;2.90;99.90;;;;;;5016364;28;20266;-67
2022/04/09 05:20:51;;;;;;;7.50;5.97;;;2.90;99.90;;;;;;5016363;28;20171;-67
2022/04/09 05:23:16;;;;;;;5.65;5.15;;;3.00;99.90;;;;;;5015999;28;20409;-66
2022/04/09 05:25:42;;;;;;;6.83;4.53;;;3.10;99.90;;;;;;5032047;28;20687;-67
2022/04/09 05:28:08;;;;;;;6.50;5.00;;;3.40;99.90;;;;;;5035885;28;20498;-65
2022/04/09 05:30:34;;;;;;;4.70;3.90;;;3.50;99.90;;;;;;5035243;28;20196;-65
2022/04/09 05:33:01;;;;;;;6.15;5.50;;;3.70;99.90;;;;;;5034503;28;20166;-65
2022/04/09 05:35:27;;;;;;;6.88;4.82;;;3.80;99.90;;;;;;5034340;28;20205;-67
2022/04/09 05:37:52;;;;;;;5.97;5.50;;;4.10;99.90;;;;;;5035831;28;20181;-66
2022/04/09 05:40:19;;;;;;;7.10;5.83;;;4.20;99.90;;;;;;5035418;28;20188;-67
2022/04/09 05:42:44;;;;;;;4.90;3.22;;;4.20;99.90;;;;;;5035372;28;20166;-68
2022/04/09 05:45:11;;;;;;;6.60;6.00;;;4.20;99.90;;;;;;5034993;28;20201;-65
2022/04/09 05:47:41;;;;;;;7.53;6.13;;;4.20;99.90;;;;;;5035629;28;20264;-64
2022/04/09 05:50:07;;;;;;;11.38;7.22;;;4.40;99.90;;;;;;5035485;28;20166;-67
2022/04/09 05:52:33;;;;;;;6.10;4.95;;;4.40;99.90;;;;;;5035545;28;20691;-65
2022/04/09 05:54:59;;;;;;;11.37;5.80;;;4.50;99.90;;;;;;5034946;28;20203;-65
2022/04/09 05:57:24;;;;;;;6.00;4.53;;;4.70;99.90;;;;;;5017743;28;20186;-67
2022/04/09 05:59:50;;;;;;;6.90;5.20;;;4.80;99.90;;;;;;5015807;28;20198;-66
2022/04/09 06:02:15;;;;;;;7.40;4.83;;;5.10;99.90;;;;;;5033916;28;20184;-67
2022/04/09 06:04:41;;;;;;;7.60;6.03;;;5.60;99.90;;;;;;5033158;28;20211;-64
2022/04/09 06:07:07;;;;;;;7.50;5.87;;;5.60;99.90;;;;;;5029829;28;20208;-62
2022/04/09 06:09:33;;;;;;;5.60;4.40;;;5.90;99.90;;;;;;5022787;28;20178;-66
2022/04/09 06:11:58;;;;;;;7.13;5.03;;;6.10;99.90;;;;;;5031789;28;20697;-65
2022/04/09 06:14:24;;;;;;;3.53;3.17;;;6.20;99.90;;;;;;5014619;28;20504;-68
2022/04/09 06:16:50;;;;;;;4.20;3.63;;;6.30;99.90;;;;;;5033657;28;20187;-70
2022/04/09 06:19:15;;;;;;;3.87;3.43;;;6.50;99.90;;;;;;5063212;28;20190;-66
2022/04/09 06:21:41;;;;;;;3.30;3.00;;;6.50;99.90;;;;;;5032964;28;20416;-66
2022/04/09 06:24:07;;;;;;;3.63;3.30;;;6.50;99.90;;;;;;5034009;28;20216;-65
2022/04/09 06:26:32;;;;;;;4.07;2.77;;;6.40;99.90;;;;;;5033918;28;20599;-65
2022/04/09 06:28:58;;;;;;;3.40;3.10;;;6.20;99.90;;;;;;5034305;28;20205;-68
2022/04/09 06:31:24;;;;;;;3.70;3.40;;;5.90;99.90;;;;;;5033673;28;20185;-64
2022/04/09 06:33:49;;;;;;;3.50;2.67;;;5.60;99.90;;;;;;5033633;28;20598;-66
2022/04/09 06:36:15;;;;;;;4.10;3.80;;;5.60;99.90;;;;;;5034309;28;20210;-65
2022/04/09 06:38:41;;;;;;;4.70;3.27;;;5.80;99.90;;;;;;5033949;28;20177;-64
2022/04/09 06:41:06;;;;;;;4.13;3.80;;;6.10;99.90;;;;;;5034194;28;20242;-67
2022/04/09 06:43:33;;;;;;;3.43;3.23;;;6.50;99.90;;;;;;5033721;28;20227;-67
2022/04/09 06:45:58;;;;;;;3.42;2.40;;;7.00;99.90;;;;;;5025656;28;20216;-67
2022/04/09 06:48:24;;;;;;;3.07;2.77;;;7.30;99.90;;;;;;5024619;28;20645;-67
2022/04/09 06:50:50;;;;;;;3.50;3.20;;;7.60;99.90;;;;;;5021455;28;20171;-68
2022/04/09 06:53:15;;;;;;;2.60;2.40;;;7.80;99.90;;;;;;5015249;28;20171;-67
2022/04/09 06:55:41;;;;;;;2.83;2.50;;;8.10;99.90;;;;;;5013116;28;20187;-68
2022/04/09 06:58:07;;;;;;;4.17;3.77;;;8.40;99.90;;;;;;5011831;28;20255;-66
2022/04/09 07:00:33;;;;;;;2.33;2.23;;;8.50;99.90;;;;;;5015462;28;20448;-65
2022/04/09 07:03:00;;;;;;;3.65;3.35;;;8.10;99.90;;;;;;5024984;28;20201;-66
2022/04/09 07:05:26;;;;;;;4.47;2.70;;;7.80;99.90;;;;;;5033210;28;20210;-67
2022/04/09 07:07:52;;;;;;;2.50;2.30;;;7.40;99.90;;;;;;5033387;28;20304;-68
2022/04/09 07:10:17;;;;;;;7.10;6.40;;;7.20;99.90;;;;;;5033253;28;20420;-66
2022/04/09 07:12:43;;;;;;;5.53;3.27;;;6.80;99.90;;;;;;5017804;28;20513;-64
2022/04/09 07:15:10;;;;;;;5.97;4.83;;;6.50;99.90;;;;;;5015018;28;20291;-65
2022/04/09 07:17:36;;;;;;;3.97;3.45;;;6.50;99.90;;;;;;5033505;28;20174;-64
2022/04/09 07:20:05;;;;;;;3.55;3.33;;;6.30;99.90;;;;;;5033450;28;20169;-66
2022/04/09 07:22:32;;;;;;;2.90;2.70;;;6.40;99.90;;;;;;5032359;28;20231;-65
2022/04/09 07:24:58;;;;;;;4.13;3.25;;;6.30;99.90;;;;;;5018252;28;20287;-65
2022/04/09 07:27:44;;;;;;;2.83;2.60;;;6.30;99.90;;;;;;5013697;28;20252;-67
2022/04/09 07:30:12;;;;;;;2.83;2.60;;;6.30;99.90;;;;;;5017589;28;20185;-65
2022/04/09 07:32:39;;;;;;;3.47;2.60;;;6.40;99.90;;;;;;5023433;28;20171;-67
2022/04/09 07:35:05;;;;;;;4.57;3.60;;;6.60;99.90;;;;;;5020816;28;20672;-66
2022/04/09 07:37:31;;;;;;;2.65;2.45;;;6.90;99.90;;;;;;5013712;28;20189;-66
2022/04/09 07:39:57;;;;;;;5.57;5.10;;;7.00;99.90;;;;;;5013770;28;20533;-65
2022/04/09 07:42:24;;;;;;;2.93;2.73;;;7.30;99.90;;;;;;5013939;28;20417;-67
2022/04/09 07:44:49;;;;;;;2.95;2.65;;;7.50;99.90;;;;;;5032178;28;20526;-67
2022/04/09 07:47:15;;;;;;;7.53;3.77;;;7.60;99.90;;;;;;5032868;28;20177;-69
2022/04/09 07:49:44;;;;;;;3.30;2.50;;;7.80;99.90;;;;;;5032967;28;20434;-67
2022/04/09 07:52:11;;;;;;;2.60;2.38;;;7.80;99.90;;;;;;5032689;28;20409;-67
2022/04/09 07:54:37;;;;;;;3.83;3.03;;;7.90;99.90;;;;;;5029349;28;20181;-67
2022/04/09 07:57:04;;;;;;;2.85;2.22;;;7.90;99.90;;;;;;5024130;28;20186;-66
2022/04/09 07:59:29;;;;;;;3.95;2.15;;;7.90;99.90;;;;;;5032276;28;20550;-68
2022/04/09 08:01:55;;;;;;;2.30;2.10;;;8.10;99.90;;;;;;5031896;28;20174;-67
2022/04/09 08:04:20;;;;;;;3.20;2.30;;;8.20;99.90;;;;;;5032366;28;20285;-67
2022/04/09 08:06:46;;;;;;;2.03;1.93;;;8.40;99.90;;;;;;5032666;28;20194;-67
2022/04/09 08:09:12;;;;;;;3.33;2.43;;;8.40;99.90;;;;;;5024402;28;20665;-69
2022/04/09 08:11:38;;;;;;;3.00;2.77;;;8.40;99.90;;;;;;5013576;28;20163;-67
2022/04/09 08:14:03;;;;;;;83.90;74.70;;;8.30;99.90;;;;;;5031406;28;20181;-67
2022/04/09 08:16:29;;;;;;;6.20;4.80;;;8.10;99.90;;;;;;5032057;28;20193;-68
2022/04/09 08:18:55;;;;;;;4.55;2.05;;;8.00;99.90;;;;;;5032495;28;20181;-69
2022/04/09 08:21:21;;;;;;;2.57;2.17;;;8.20;99.90;;;;;;5035768;28;20185;-68
2022/04/09 08:23:47;;;;;;;4.97;3.27;;;8.30;99.90;;;;;;5036542;28;20484;-70
2022/04/09 08:26:13;;;;;;;2.00;1.90;;;8.40;99.90;;;;;;5036707;28;20188;-69
2022/04/09 08:28:40;;;;;;;1.95;1.85;;;8.20;99.90;;;;;;5036445;28;20261;-67
2022/04/09 08:31:06;;;;;;;4.00;2.05;;;8.30;99.90;;;;;;5036576;28;20166;-69
2022/04/09 08:33:32;;;;;;;4.90;2.25;;;8.40;99.90;;;;;;5036172;28;20254;-70
2022/04/09 08:35:59;;;;;;;2.57;2.00;;;8.50;99.90;;;;;;5036722;28;20257;-68
2022/04/09 08:38:25;;;;;;;2.65;2.10;;;8.40;99.90;;;;;;5036654;28;20576;-67
2022/04/09 08:40:50;;;;;;;2.00;1.90;;;8.40;99.90;;;;;;5036757;28;20205;-66
2022/04/09 08:43:16;;;;;;;2.20;1.57;;;8.60;99.90;;;;;;5036176;28;20163;-67
2022/04/09 08:45:42;;;;;;;2.03;1.93;;;8.80;99.90;;;;;;5035850;28;20495;-67
2022/04/09 08:48:09;;;;;;;1.80;1.70;;;8.90;99.90;;;;;;5036156;28;20265;-72
2022/04/09 08:50:36;;;;;;;5.00;2.67;;;9.00;99.90;;;;;;5036322;28;20209;-67
2022/04/09 08:53:06;;;;;;;2.10;2.00;;;8.90;99.90;;;;;;5036180;28;20175;-69
2022/04/09 08:55:36;;;;;;;1.75;1.65;;;8.90;99.90;;;;;;5035737;28;20187;-69
2022/04/09 08:58:03;;;;;;;2.13;1.93;;;9.90;99.90;;;;;;5036324;28;20307;-68
2022/04/09 09:00:29;;;;;;;7.00;3.40;;;11.30;99.90;;;;;;5035762;28;20756;-67
2022/04/09 09:03:00;;;;;;;2.50;1.70;;;12.00;99.90;;;;;;5034527;28;20507;-69
2022/04/09 09:05:38;;;;;;;2.07;1.80;;;12.40;99.90;;;;;;5034639;28;21101;-68
2022/04/09 09:08:05;;;;;;;3.13;2.10;;;12.50;98.50;;;;;;5035977;28;20413;-66
2022/04/09 09:10:31;;;;;;;1.90;1.70;;;12.20;97.90;;;;;;5035531;28;20409;-69
2022/04/09 09:13:05;;;;;;;2.00;1.90;;;12.00;98.50;;;;;;5035970;28;20401;-67
2022/04/09 09:15:53;;;;;;;3.90;2.23;;;11.60;98.40;;;;;;5034573;28;21047;-68
2022/04/09 09:18:20;;;;;;;2.67;2.20;;;11.30;98.90;;;;;;5035003;28;20429;-68
2022/04/09 09:20:55;;;;;;;2.93;2.63;;;11.00;99.60;;;;;;5035819;28;20858;-67
2022/04/09 09:23:26;;;;;;;2.47;2.20;;;10.70;99.90;;;;;;5034384;28;20786;-68
2022/04/09 09:25:54;;;;;;;4.93;3.00;;;10.40;99.90;;;;;;5034023;28;20498;-69
2022/04/09 09:28:30;;;;;;;2.40;2.20;;;10.60;99.90;;;;;;5034624;28;20503;-68
2022/04/09 09:30:57;;;;;;;2.07;1.73;;;11.20;99.90;;;;;;5035509;28;20405;-69
2022/04/09 09:33:24;;;;;;;2.87;2.63;;;12.20;99.90;;;;;;5034766;28;20380;-69
2022/04/09 09:36:00;;;;;;;3.70;2.57;;;12.90;98.60;;;;;;5034245;28;20800;-68
2022/04/09 09:38:27;;;;;;;1.97;1.87;;;13.50;97.50;;;;;;5033704;28;20874;-70
2022/04/09 09:40:54;;;;;;;2.73;1.77;;;14.50;97.60;;;;;;5033174;28;20425;-67
2022/04/09 09:43:23;;;;;;;1.90;1.33;;;15.70;95.40;;;;;;5032986;28;20415;-70
2022/04/09 09:45:51;;;;;;;2.40;1.90;;;16.70;92.90;;;;;;5033335;28;20435;-71
2022/04/09 09:48:30;;;;;;;1.97;1.87;;;17.60;92.60;;;;;;5033260;28;20737;-70
2022/04/09 09:50:59;;;;;;;1.43;1.40;;;18.30;90.30;;;;;;5034185;28;20406;-69
2022/04/09 09:53:29;;;;;;;5.10;1.93;;;18.90;89.60;;;;;;5034916;28;20376;-70
2022/04/09 09:55:56;;;;;;;3.07;1.77;;;19.30;86.90;;;;;;5034655;28;20444;-69
2022/04/09 09:58:23;;;;;;;1.70;1.60;;;19.20;83.70;;;;;;5035047;28;20401;-69
2022/04/09 10:00:49;;;;;;;2.50;2.20;;;18.80;83.60;;;;;;5034990;28;20404;-69
2022/04/09 10:03:16;;;;;;;1.60;1.50;;;18.60;81.70;;;;;;5034540;28;20923;-68
2022/04/09 10:05:42;;;;;;;2.10;1.90;;;17.80;83.30;;;;;;5034795;28;20823;-68
2022/04/09 10:08:09;;;;;;;4.80;2.53;;;17.50;85.70;;;;;;5034909;28;20407;-69
2022/04/09 10:10:36;;;;;;;1.73;1.30;;;17.80;85.60;;;;;;5034627;28;20389;-68
2022/04/09 10:13:06;;;;;;;2.33;2.00;;;17.50;83.50;;;;;;5034781;28;20420;-70
2022/04/09 10:15:32;;;;;;;1.80;1.63;;;17.20;84.40;;;;;;5034590;28;20395;-69
2022/04/09 10:18:00;;;;;;;2.53;1.53;;;17.40;85.00;;;;;;5034633;28;20494;-68
2022/04/09 10:20:28;;;;;;;2.00;1.80;;;18.10;86.20;;;;;;5034829;28;20461;-69
2022/04/09 10:22:58;;;;;;;2.53;2.33;;;18.80;82.80;;;;;;5034618;28;20454;-69
2022/04/09 10:25:32;;;;;;;1.53;1.47;;;18.50;79.90;;;;;;5034008;28;20545;-68
2022/04/09 10:28:02;;;;;;;3.00;2.10;;;17.70;80.20;;;;;;5034995;28;20364;-68
2022/04/09 10:30:37;;;;;;;1.80;1.70;;;16.80;79.40;;;;;;5034947;28;20439;-66
2022/04/09 10:33:02;;;;;;;1.60;1.50;;;15.70;81.10;;;;;;5034603;28;20414;-68
2022/04/09 10:35:38;;;;;;;2.23;1.43;;;15.50;84.10;;;;;;5034433;28;20432;-68
2022/04/09 10:38:07;;;;;;;2.43;1.80;;;15.70;86.60;;;;;;5034727;28;20380;-68
2022/04/09 10:40:57;;;;;;;1.50;1.40;;;16.20;86.50;;;;;;5034411;28;20388;-69
2022/04/09 10:43:22;;;;;;;1.63;1.53;;;16.80;85.80;;;;;;5033295;28;20432;-69
2022/04/09 10:46:17;;;;;;;1.60;1.60;;;17.10;85.00;;;;;;5034061;28;20959;-67
2022/04/09 10:48:44;;;;;;;1.20;1.13;;;17.40;83.50;;;;;;5034135;28;20174;-68
2022/04/09 10:51:14;;;;;;;1.33;1.20;;;17.30;81.80;;;;;;5034752;28;20720;-68
2022/04/09 10:53:50;;;;;;;3.40;1.50;;;17.30;80.80;;;;;;5033926;28;20416;-70
2022/04/09 10:56:26;;;;;;;1.70;1.60;;;16.70;80.00;;;;;;5033752;28;20948;-68
2022/04/09 10:59:16;;;;;;;1.73;1.63;;;16.00;80.20;;;;;;5034289;28;20376;-68
2022/04/09 11:01:51;;;;;;;1.60;1.50;;;14.80;80.60;;;;;;5034305;28;20488;-68
2022/04/09 11:04:34;;;;;;;1.43;1.37;;;14.10;87.10;;;;;;5033586;28;20512;-68
2022/04/09 11:07:18;;;;;;;4.63;1.73;;;14.40;90.10;;;;;;5034088;28;20394;-68
2022/04/09 11:09:59;;;;;;;2.47;1.90;;;14.30;89.40;;;;;;5033671;28;20416;-67
2022/04/09 11:12:38;;;;;;;1.77;1.67;;;14.60;88.50;;;;;;5034305;28;20405;-68
2022/04/09 11:15:21;;;;;;;1.90;1.80;;;14.20;87.90;;;;;;5033552;28;20414;-68
2022/04/09 11:17:46;;;;;;;1.90;1.40;;;13.70;86.40;;;;;;5015893;28;20483;-68
2022/04/09 11:20:23;;;;;;;1.27;1.27;;;13.00;87.70;;;;;;5033682;28;20397;-68
2022/04/09 11:22:52;;;;;;;3.03;2.40;;;12.40;90.20;;;;;;5033710;28;20210;-69
2022/04/09 11:25:22;;;;;;;4.20;2.47;;;11.90;91.30;;;;;;5032753;28;20479;-67
2022/04/09 11:27:48;;;;;;;6.10;2.00;;;11.40;91.70;;;;;;5033718;28;20793;-67
2022/04/09 11:30:15;;;;;;;2.60;1.80;;;11.20;92.50;;;;;;5033515;28;20422;-68
2022/04/09 11:32:40;;;;;;;5.50;1.70;;;11.00;92.00;;;;;;5033686;28;20435;-68
2022/04/09 11:35:11;;;;;;;2.30;1.70;;;10.90;92.70;;;;;;5033044;28;20469;-67
2022/04/09 11:37:48;;;;;;;1.30;1.20;;;10.80;93.00;;;;;;5033669;28;20596;-68
2022/04/09 11:40:14;;;;;;;1.77;1.60;;;10.90;93.20;;;;;;5033340;28;20223;-67
2022/04/09 11:42:51;;;;;;;3.63;1.40;;;11.10;93.80;;;;;;5033455;28;20483;-68
2022/04/09 11:45:22;;;;;;;1.80;1.70;;;11.30;92.60;;;;;;5032722;28;20766;-68
2022/04/09 11:47:48;;;;;;;2.92;2.22;;;11.20;92.30;;;;;;5033137;28;20464;-70
2022/04/09 11:50:15;;;;;;;1.92;1.80;;;10.90;92.50;;;;;;5033750;28;20526;-70
2022/04/09 11:52:41;;;;;;;4.30;1.70;;;10.90;93.40;;;;;;5033320;28;20164;-67
2022/04/09 11:55:11;;;;;;;3.70;1.70;;;11.00;93.80;;;;;;5032478;28;20195;-70
2022/04/09 11:57:38;;;;;;;1.95;1.65;;;11.00;92.90;;;;;;5032936;28;20182;-68
2022/04/09 12:00:06;;;;;;;1.75;1.63;;;11.00;92.70;;;;;;5033157;28;20557;-68
2022/04/09 12:02:32;;;;;;;1.50;1.40;;;10.80;91.90;;;;;;5032606;28;20637;-68
2022/04/09 12:04:59;;;;;;;9.35;1.50;;;10.70;92.80;;;;;;5032546;28;20206;-69
2022/04/09 12:07:30;;;;;;;1.90;1.80;;;10.70;93.10;;;;;;5032207;28;20193;-67
2022/04/09 12:09:56;;;;;;;1.27;1.20;;;10.80;92.90;;;;;;5033240;28;20197;-70
2022/04/09 12:12:23;;;;;;;2.70;1.60;;;10.80;92.70;;;;;;5032956;28;20163;-68
2022/04/09 12:14:54;;;;;;;2.05;1.42;;;10.70;92.60;;;;;;5032613;28;20600;-68
2022/04/09 12:17:22;;;;;;;1.45;1.35;;;10.60;92.80;;;;;;5033333;28;20163;-67
2022/04/09 12:19:50;;;;;;;8.85;1.95;;;10.70;93.90;;;;;;5031744;28;20203;-70
2022/04/09 12:22:22;;;;;;;2.20;2.03;;;10.90;93.80;;;;;;5032435;28;20270;-67
2022/04/09 12:24:56;;;;;;;3.03;1.42;;;11.00;92.30;;;;;;5032436;28;20202;-68
2022/04/09 12:27:42;;;;;;;2.10;1.80;;;11.00;91.60;;;;;;5033062;28;20193;-68
2022/04/09 12:30:08;;;;;;;2.58;1.60;;;11.00;92.30;;;;;;5033133;28;20172;-69
2022/04/09 12:32:34;;;;;;;1.92;1.80;;;11.10;92.80;;;;;;5032855;28;20682;-68
2022/04/09 12:35:29;;;;;;;5.90;2.70;;;11.30;92.30;;;;;;5032085;28;20290;-68
2022/04/09 12:37:55;;;;;;;5.95;1.77;;;11.50;92.30;;;;;;5013158;28;20187;-66
2022/04/09 12:40:22;;;;;;;2.67;1.50;;;11.70;90.70;;;;;;5013066;28;20255;-71
2022/04/09 12:42:48;;;;;;;2.40;1.85;;;11.70;90.10;;;;;;5013083;28;20540;-68
2022/04/09 12:45:20;;;;;;;5.80;5.30;;;11.70;89.90;;;;;;5028605;28;20617;-68
2022/04/09 12:47:53;;;;;;;2.38;1.58;;;11.60;90.20;;;;;;5032575;28;20202;-68
2022/04/09 12:50:40;;;;;;;2.13;1.95;;;11.40;90.40;;;;;;5032568;28;20529;-68
2022/04/09 12:53:07;;;;;;;5.43;1.50;;;11.50;91.50;;;;;;5032103;28;20645;-69
2022/04/09 12:55:33;;;;;;;2.08;1.90;;;11.50;91.60;;;;;;5032251;28;20401;-67